Fenton, MI

7:37 AM EST on December 25, 2014 (GMT -0500)
Bishop International | Change Station
CLOSE
Current Station
Airport
Location: Flint,
Elevation: 764 ft
Nearby Weather Stations

Elev 764 ft 42.97 °N, 83.75 °W | Updated 44 minutes ago

Overcast
Overcast
37 °F
Feels Like 28 °F
N
15
Wind Variable Wind from West
Gusts 23 mph

Today
High -- | Low -- °F
--% Chance of Precip.
Yesterday
High -- | Low -- °F
Precip. -- in
8:04 AM 5:06 PM
Waxing Crescent, 16% visible
Pressure 29.73 in
Visibility 10.0 miles
Clouds Few 1200 ft
Overcast 2000 ft
Windchill 28 °F
Dew Point 33 °F
Humidity 86%
Rainfall 0.00 in
Snow Depth Not available.
UV 0 out of 12
Pollen .10 out of 12
Air Quality Not available.
Flu Activity Not available.
METAR KFNT 251153Z 26013G20KT 10SM FEW012 OVC020 03/01 A2971 RMK AO2 RAB14E39 SLP067 P0000 60000 70102 T00280006 10033 20022 51032

More Conditions Fewer Conditions

Pressure 29.73 in
Visibility 10.0 miles
Clouds Few 1200 ft
Overcast 2000 ft
Windchill 28 °F
Dew Point 33 °F
Humidity 86%
Rainfall 0.00 in
Snow Depth Not available.
UV 0 out of 12
Pollen .10 out of 12
Air Quality Not available.
Flu Activity Not available.
METAR KFNT 251153Z 26013G20KT 10SM FEW012 OVC020 03/01 A2971 RMK AO2 RAB14E39 SLP067 P0000 60000 70102 T00280006 10033 20022 51032

More Conditions Fewer Conditions

10-Day Weather Forecast

Almanac

Astronomy

Dec. 25, 2014 Rise Set
Actual Time
Civil Twilight
Nautical Twilight
Astronomical Twilight
Moon
Length of Visible Light
Length of Day
Tomorrow will be .
, % of the Moon is Illuminated

Today's Extremes

State Highs State Lows

Community

WunderPhotos

Upload Photos

1,780,266 photos uploaded!

WunderBlogs® & News

Nearby

Air Quality

  Air Quality AQ Index Pollutant
Not available.

Snow Depth

Station Depth Elevation

Earthquake Activity

City Distance Mag. Time & Date
Minimum magnitude displayed is 2.5.

Coastal Water Temperatures

Place Temperature

Nearby Weather Stations